createdAt,value
2018-08-22T00:00:50.779Z,83.40
2018-08-22T00:01:51.006Z,83.30
2018-08-22T00:02:51.249Z,83.40
2018-08-22T00:03:51.488Z,83.49
2018-08-22T00:04:51.742Z,83.97
2018-08-22T00:05:51.981Z,83.59
2018-08-22T00:06:52.232Z,83.11
2018-08-22T00:07:52.465Z,83.97
2018-08-22T00:08:52.734Z,83.49
2018-08-22T00:09:52.924Z,83.40
2018-08-22T00:10:53.196Z,83.49
2018-08-22T00:11:53.417Z,83.01
2018-08-22T00:12:53.667Z,82.43
2018-08-22T00:13:53.917Z,83.20
2018-08-22T00:14:54.147Z,81.76
2018-08-22T00:15:54.403Z,80.71
2018-08-22T00:16:54.651Z,80.80
2018-08-22T00:17:54.896Z,81.09
2018-08-22T00:18:55.154Z,82.73
2018-08-22T00:19:55.391Z,83.30
2018-08-22T00:20:55.601Z,83.40
2018-08-22T00:21:55.848Z,81.38
2018-08-22T00:22:56.093Z,81.09
2018-08-22T00:23:56.324Z,82.34
2018-08-22T00:24:56.577Z,81.67
2018-08-22T00:25:56.825Z,84.07
2018-08-22T00:26:57.103Z,83.20
2018-08-22T00:27:57.301Z,83.69
2018-08-22T00:28:57.554Z,83.01
2018-08-22T00:29:57.775Z,83.30
2018-08-22T00:30:58.008Z,83.30
2018-08-22T00:31:58.285Z,83.49
2018-08-22T00:32:58.516Z,83.49
2018-08-22T00:33:58.750Z,84.26
2018-08-22T00:34:58.985Z,83.97
2018-08-22T00:35:59.214Z,84.26
2018-08-22T00:36:59.450Z,83.78
2018-08-22T00:37:59.703Z,83.78
2018-08-22T00:38:59.942Z,83.69
2018-08-22T00:40:00.159Z,83.11
2018-08-22T00:41:00.400Z,83.69
2018-08-22T00:42:00.664Z,83.97
2018-08-22T00:43:00.876Z,83.87
2018-08-22T00:44:01.129Z,83.69
2018-08-22T00:45:01.377Z,82.92
2018-08-22T00:46:01.604Z,83.20
2018-08-22T00:47:01.838Z,83.11
2018-08-22T00:48:02.080Z,82.53
2018-08-22T00:49:02.314Z,81.86
2018-08-22T00:50:02.578Z,81.19
2018-08-22T00:51:02.823Z,81.53
2018-08-22T00:52:03.055Z,81.34
2018-08-22T00:53:03.322Z,79.99
2018-08-22T00:54:03.542Z,78.75
2018-08-22T00:55:03.776Z,78.75
2018-08-22T00:56:04.071Z,78.65
2018-08-22T00:57:04.283Z,78.27
2018-08-22T00:58:04.531Z,77.40
2018-08-22T00:59:04.761Z,77.50
2018-08-22T01:00:04.984Z,77.50
2018-08-22T01:01:05.210Z,76.64
2018-08-22T01:02:05.460Z,76.82
2018-08-22T01:03:05.689Z,75.71
2018-08-22T01:04:05.943Z,76.73
2018-08-22T01:05:06.207Z,76.00
2018-08-22T01:06:06.413Z,75.67
2018-08-22T01:07:06.677Z,76.00
2018-08-22T01:08:06.905Z,75.81
2018-08-22T01:09:07.142Z,76.00
2018-08-22T01:10:07.386Z,76.34
2018-08-22T01:11:07.627Z,76.39
2018-08-22T01:12:07.869Z,76.86
2018-08-22T01:13:08.117Z,76.34
2018-08-22T01:14:08.366Z,76.09
2018-08-22T01:15:08.617Z,76.67
2018-08-22T01:16:08.825Z,75.81
2018-08-22T01:17:09.090Z,76.09
2018-08-22T01:18:09.311Z,75.52
2018-08-22T01:19:09.566Z,76.57
2018-08-22T01:20:09.808Z,76.09
2018-08-22T01:21:10.059Z,76.67
2018-08-22T01:22:10.318Z,76.57
2018-08-22T01:23:10.559Z,76.39
2018-08-22T01:24:10.792Z,77.34
2018-08-22T01:25:11.028Z,77.73
2018-08-22T01:26:11.296Z,78.11
2018-08-22T01:27:11.541Z,79.07
2018-08-22T01:28:11.777Z,78.88
2018-08-22T01:29:12.015Z,78.59
2018-08-22T01:30:12.259Z,78.30
2018-08-22T01:31:12.502Z,79.07
2018-08-22T01:32:12.756Z,79.07
2018-08-22T01:33:12.994Z,78.78
2018-08-22T01:34:13.242Z,78.02
2018-08-22T01:35:13.492Z,78.59
2018-08-22T01:36:13.717Z,77.63
2018-08-22T01:37:13.958Z,78.11
2018-08-22T01:38:14.204Z,78.40
2018-08-22T01:39:14.450Z,78.21
2018-08-22T01:40:14.696Z,78.30
2018-08-22T01:41:14.940Z,77.44
2018-08-22T01:42:15.174Z,77.83
2018-08-22T01:43:15.411Z,77.73
2018-08-22T01:44:15.648Z,76.96
2018-08-22T01:45:15.885Z,76.96
2018-08-22T01:46:16.112Z,76.48
2018-08-22T01:47:16.389Z,76.67
2018-08-22T01:48:16.605Z,76.86
2018-08-22T01:49:16.846Z,77.06
2018-08-22T01:50:17.084Z,76.86
2018-08-22T01:51:17.335Z,76.86
2018-08-22T01:52:17.582Z,76.96
2018-08-22T01:53:17.796Z,76.96
2018-08-22T01:54:18.044Z,76.09
2018-08-22T01:55:18.285Z,75.71
2018-08-22T01:56:18.522Z,75.42
2018-08-22T01:57:18.767Z,75.20
2018-08-22T01:58:19.020Z,75.32
2018-08-22T01:59:19.250Z,74.62
2018-08-22T02:00:19.505Z,74.43
2018-08-22T02:01:19.740Z,74.75
2018-08-22T02:02:19.977Z,74.43
2018-08-22T02:03:20.208Z,74.81
2018-08-22T02:04:20.463Z,74.90
2018-08-22T02:05:20.695Z,74.65
2018-08-22T02:06:20.935Z,74.71
2018-08-22T02:07:21.160Z,73.37
2018-08-22T02:08:21.416Z,73.46
2018-08-22T02:09:21.665Z,72.79
2018-08-22T02:10:21.919Z,73.75
2018-08-22T02:11:22.139Z,73.46
2018-08-22T02:12:22.380Z,73.75
2018-08-22T02:13:22.630Z,73.85
2018-08-22T02:14:22.864Z,74.23
2018-08-22T02:15:23.099Z,73.46
2018-08-22T02:16:23.340Z,73.56
2018-08-22T02:17:23.571Z,73.08
2018-08-22T02:18:23.829Z,73.18
2018-08-22T02:19:24.054Z,72.69
2018-08-22T02:20:24.307Z,72.69
2018-08-22T02:21:24.540Z,71.25
2018-08-22T02:22:24.776Z,70.97
2018-08-22T02:23:25.005Z,71.83
2018-08-22T02:24:25.249Z,73.56
2018-08-22T02:25:25.506Z,72.28
2018-08-22T02:26:25.743Z,70.45
2018-08-22T02:27:25.993Z,68.82
2018-08-22T02:28:26.220Z,68.73
2018-08-22T02:29:26.484Z,67.19
2018-08-22T02:30:26.705Z,67.96
2018-08-22T02:31:26.955Z,68.73
2018-08-22T02:32:27.207Z,67.19
2018-08-22T02:33:27.447Z,67.00
2018-08-22T02:34:27.672Z,67.29
2018-08-22T02:35:27.907Z,66.19
2018-08-22T02:36:28.163Z,66.77
2018-08-22T02:37:28.397Z,66.19
2018-08-22T02:38:28.631Z,66.39
2018-08-22T02:39:28.871Z,65.43
2018-08-22T02:40:29.119Z,63.99
2018-08-22T02:41:29.352Z,64.47
2018-08-22T02:42:29.618Z,63.42
2018-08-22T02:43:29.861Z,64.37
2018-08-22T02:44:30.070Z,64.47
2018-08-22T02:45:30.330Z,64.76
2018-08-22T02:46:30.546Z,64.47
2018-08-22T02:47:30.787Z,63.89
2018-08-22T02:48:31.036Z,64.18
2018-08-22T02:49:31.285Z,63.70
2018-08-22T02:50:31.519Z,63.99
2018-08-22T02:51:31.752Z,64.47
2018-08-22T02:52:31.987Z,64.59
2018-08-22T02:53:32.249Z,63.92
2018-08-22T02:54:32.474Z,65.36
2018-08-22T02:55:32.688Z,65.17
2018-08-22T02:56:32.934Z,64.79
2018-08-22T02:57:33.171Z,63.45
2018-08-22T02:58:33.418Z,61.91
2018-08-22T02:59:33.672Z,62.48
2018-08-22T03:00:33.889Z,62.58
2018-08-22T03:01:34.142Z,62.68
2018-08-22T03:02:34.399Z,61.91
2018-08-22T03:03:34.636Z,63.64
2018-08-22T03:04:34.874Z,62.68
2018-08-22T03:05:35.128Z,63.54
2018-08-22T03:06:35.347Z,63.35
2018-08-22T03:07:35.612Z,63.06
2018-08-22T03:08:35.823Z,63.45
2018-08-22T03:09:36.062Z,63.54
2018-08-22T03:10:44.007Z,63.35
2018-08-22T03:11:36.672Z,63.45
2018-08-22T03:12:36.928Z,63.35
2018-08-22T03:13:37.139Z,63.25
2018-08-22T03:14:37.401Z,63.25
2018-08-22T03:15:37.611Z,63.25
2018-08-22T03:16:37.839Z,62.39
2018-08-22T03:17:38.081Z,62.58
2018-08-22T03:18:38.311Z,62.87
2018-08-22T03:19:38.573Z,62.39
2018-08-22T03:20:38.816Z,62.39
2018-08-22T03:21:39.043Z,62.58
2018-08-22T03:22:39.280Z,62.01
2018-08-22T03:23:39.531Z,61.72
2018-08-22T03:24:39.777Z,61.24
2018-08-22T03:25:39.990Z,61.43
2018-08-22T03:26:40.237Z,61.14
2018-08-22T03:27:40.467Z,61.72
2018-08-22T03:28:40.730Z,61.33
2018-08-22T03:29:40.966Z,60.75
2018-08-22T03:30:41.190Z,60.85
2018-08-22T03:31:41.438Z,59.70
2018-08-22T03:32:41.669Z,60.25
2018-08-22T03:33:41.933Z,59.99
2018-08-22T03:34:42.153Z,59.80
2018-08-22T03:35:42.405Z,59.51
2018-08-22T03:36:42.630Z,59.89
2018-08-22T03:37:42.858Z,59.99
2018-08-22T03:38:43.121Z,59.86
2018-08-22T03:39:43.334Z,59.67
2018-08-22T03:40:43.589Z,60.08
2018-08-22T03:41:43.817Z,59.86
2018-08-22T03:42:44.055Z,59.70
2018-08-22T03:43:44.311Z,59.89
2018-08-22T03:44:44.532Z,60.28
2018-08-22T03:45:44.777Z,60.18
2018-08-22T03:46:45.002Z,60.38
2018-08-22T03:47:45.233Z,60.47
2018-08-22T03:48:45.472Z,60.25
2018-08-22T03:49:45.724Z,60.28
2018-08-22T03:50:45.973Z,59.80
2018-08-22T03:51:46.217Z,59.89
2018-08-22T03:52:46.432Z,59.70
2018-08-22T03:53:46.693Z,59.03
2018-08-22T03:54:46.952Z,58.17
2018-08-22T03:55:47.196Z,58.33
2018-08-22T03:56:47.440Z,59.58
2018-08-22T03:57:47.681Z,58.14
2018-08-22T03:58:47.942Z,58.33
2018-08-22T03:59:48.205Z,58.04
2018-08-22T04:00:48.417Z,57.68
2018-08-22T04:01:48.667Z,57.95
2018-08-22T04:02:48.902Z,57.75
2018-08-22T04:03:49.138Z,57.56
2018-08-22T04:04:49.397Z,56.92
2018-08-22T04:05:49.634Z,57.18
2018-08-22T04:06:49.873Z,57.46
2018-08-22T04:07:50.129Z,58.14
2018-08-22T04:08:59.038Z,57.95
2018-08-22T04:09:50.578Z,58.17
2018-08-22T04:10:58.452Z,59.12
2018-08-22T04:11:51.129Z,59.32
2018-08-22T04:12:51.367Z,59.32
2018-08-22T04:13:51.604Z,59.61
2018-08-22T04:15:01.044Z,60.05
2018-08-22T04:15:52.211Z,59.96
2018-08-22T04:17:00.021Z,59.61
2018-08-22T04:17:52.654Z,60.18
2018-08-22T04:18:52.907Z,59.89
2018-08-22T04:19:53.148Z,59.99
2018-08-22T04:21:02.167Z,59.99
2018-08-22T04:22:02.252Z,60.53
2018-08-22T04:22:53.987Z,60.35
2018-08-22T04:23:54.263Z,60.38
2018-08-22T04:24:54.592Z,60.28
2018-08-22T04:25:54.713Z,59.80
2018-08-22T04:26:54.959Z,60.18
2018-08-22T04:27:55.199Z,59.86
2018-08-22T04:28:55.467Z,59.67
2018-08-22T04:29:55.678Z,58.62
2018-08-22T04:31:04.534Z,57.46
2018-08-22T04:31:56.292Z,57.37
2018-08-22T04:32:56.533Z,56.22
2018-08-22T04:33:56.774Z,56.41
2018-08-22T04:34:57.010Z,56.02
2018-08-22T04:35:57.237Z,55.45
2018-08-22T04:36:57.482Z,54.30
2018-08-22T04:37:57.733Z,54.68
2018-08-22T04:38:57.963Z,52.19
2018-08-22T04:39:58.211Z,52.28
2018-08-22T04:40:58.436Z,50.37
2018-08-22T04:41:58.678Z,47.97
2018-08-22T04:42:58.922Z,47.37
2018-08-22T04:43:59.176Z,47.08
2018-08-22T04:44:59.412Z,46.98
2018-08-22T04:45:59.652Z,47.27
2018-08-22T04:46:59.881Z,46.50
2018-08-22T04:48:00.128Z,46.79
2018-08-22T04:49:00.379Z,46.31
2018-08-22T04:50:00.661Z,46.50
2018-08-22T04:51:00.861Z,46.60
2018-08-22T04:52:01.108Z,47.37
2018-08-22T04:53:01.380Z,47.94
2018-08-22T04:54:01.648Z,47.27
2018-08-22T04:55:01.926Z,46.50
2018-08-22T04:56:02.199Z,45.93
2018-08-22T04:57:02.453Z,46.60
2018-08-22T04:58:02.687Z,47.08
2018-08-22T04:59:02.919Z,47.39
2018-08-22T05:00:03.199Z,48.07
2018-08-22T05:01:03.446Z,49.12
2018-08-22T05:02:03.740Z,50.37
2018-08-22T05:03:03.960Z,50.08
2018-08-22T05:04:04.251Z,50.08
2018-08-22T05:05:04.534Z,49.60
2018-08-22T05:06:04.868Z,50.27
2018-08-22T05:07:05.047Z,50.08
2018-08-22T05:08:05.285Z,49.69
2018-08-22T05:09:05.520Z,50.08
2018-08-22T05:10:05.759Z,50.84
2018-08-22T05:11:06.044Z,51.71
2018-08-22T05:12:06.255Z,52.67
2018-08-22T05:13:06.489Z,53.72
2018-08-22T05:14:06.740Z,54.78
2018-08-22T05:15:06.972Z,55.26
2018-08-22T05:16:07.204Z,55.83
2018-08-22T05:17:07.444Z,56.31
2018-08-22T05:18:07.705Z,56.51
2018-08-22T05:19:07.959Z,57.08
2018-08-22T05:20:08.216Z,55.93
2018-08-22T05:21:08.468Z,56.12
2018-08-22T05:22:08.737Z,56.41
2018-08-22T05:23:08.997Z,57.65
2018-08-22T05:24:09.212Z,57.40
2018-08-22T05:25:09.448Z,58.36
2018-08-22T05:26:09.686Z,59.41
2018-08-22T05:27:09.936Z,59.89
2018-08-22T05:28:10.182Z,60.85
2018-08-22T05:29:10.476Z,61.24
2018-08-22T05:30:10.742Z,61.72
2018-08-22T05:31:10.869Z,61.43
2018-08-22T05:32:11.124Z,61.81
2018-08-22T05:33:11.377Z,62.10
2018-08-22T05:34:11.630Z,62.58
2018-08-22T05:35:11.864Z,63.06
2018-08-22T05:36:12.127Z,63.06
2018-08-22T05:37:12.408Z,63.45
2018-08-22T05:38:12.609Z,63.06
2018-08-22T05:39:12.881Z,63.16
2018-08-22T05:40:13.167Z,63.16
2018-08-22T05:41:13.412Z,63.73
2018-08-22T05:42:13.693Z,63.83
2018-08-22T05:43:13.934Z,65.20
2018-08-22T05:44:14.208Z,65.40
2018-08-22T05:45:14.407Z,66.36
2018-08-22T05:46:14.698Z,66.36
2018-08-22T05:47:14.947Z,65.97
2018-08-22T05:48:15.170Z,67.03
2018-08-22T05:49:15.546Z,66.93
2018-08-22T05:50:15.766Z,69.91
2018-08-22T05:51:16.018Z,70.58
2018-08-22T05:52:16.268Z,70.68
2018-08-22T05:53:24.539Z,71.19
2018-08-22T05:54:16.750Z,71.67
2018-08-22T05:55:17.005Z,72.83
2018-08-22T05:56:17.211Z,73.21
2018-08-22T05:57:17.476Z,74.55
2018-08-22T05:58:17.695Z,74.37
2018-08-22T05:59:17.941Z,75.52
2018-08-22T06:00:18.225Z,77.58
2018-08-22T06:01:18.468Z,79.50
2018-08-22T06:02:18.701Z,80.65
2018-08-22T06:03:18.972Z,80.55
2018-08-22T06:04:27.816Z,82.09
2018-08-22T06:05:19.574Z,82.04
2018-08-22T06:06:29.449Z,83.86
2018-08-22T06:07:20.092Z,83.67
2018-08-22T06:08:20.297Z,84.54
2018-08-22T06:09:20.538Z,85.69
2018-08-22T06:10:20.788Z,86.99
2018-08-22T06:11:21.108Z,87.27
2018-08-22T06:12:21.319Z,88.33
2018-08-22T06:13:21.632Z,89.20
2018-08-22T06:14:30.477Z,88.71
2018-08-22T06:15:22.240Z,87.85
2018-08-22T06:16:22.449Z,87.95
2018-08-22T06:17:30.345Z,89.78
2018-08-22T06:18:23.067Z,91.36
2018-08-22T06:19:23.314Z,91.36
2018-08-22T06:20:31.196Z,91.94
2018-08-22T06:21:23.913Z,92.37
2018-08-22T06:22:24.129Z,93.04
2018-08-22T06:23:24.360Z,93.62
2018-08-22T06:24:24.599Z,94.59
2018-08-22T06:25:24.884Z,95.64
2018-08-22T06:26:25.101Z,95.74
2018-08-22T06:27:25.329Z,96.85
2018-08-22T06:28:33.434Z,97.62
2018-08-22T06:29:25.882Z,98.39
2018-08-22T06:30:26.119Z,98.54
2018-08-22T06:31:26.364Z,99.98
2018-08-22T06:32:26.625Z,98.92
2018-08-22T06:33:26.823Z,99.99
2018-08-22T06:34:27.077Z,99.99
2018-08-22T06:35:27.292Z,99.99
2018-08-22T06:36:36.204Z,99.99
2018-08-22T06:37:27.983Z,99.99
2018-08-22T06:38:28.250Z,99.99
2018-08-22T06:39:28.452Z,99.99
2018-08-22T06:40:38.388Z,99.99
2018-08-22T06:41:28.965Z,99.99
2018-08-22T06:42:29.202Z,99.99
2018-08-22T06:43:29.409Z,99.99
2018-08-22T06:44:38.533Z,99.99
2018-08-22T06:45:30.097Z,97.96
2018-08-22T06:46:38.010Z,93.65
2018-08-22T06:47:40.304Z,87.98
2018-08-22T06:48:30.890Z,84.05
2018-08-22T06:49:40.789Z,80.40
2018-08-22T06:50:31.454Z,78.75
2018-08-22T06:51:31.703Z,77.24
2018-08-22T06:52:31.938Z,74.37
2018-08-22T06:53:39.826Z,71.88
2018-08-22T06:54:41.217Z,69.09
2018-08-22T06:55:32.702Z,68.60
2018-08-22T06:56:32.956Z,68.67
2018-08-22T06:57:33.223Z,66.56
2018-08-22T06:58:33.450Z,65.98
2018-08-22T06:59:33.707Z,64.43
2018-08-22T07:00:41.643Z,63.29
2018-08-22T07:01:34.323Z,62.64
2018-08-22T07:02:44.222Z,66.34
2018-08-22T07:03:34.825Z,69.48
2018-08-22T07:04:35.093Z,71.09
2018-08-22T07:05:35.333Z,70.73
2018-08-22T07:06:44.311Z,71.64
2018-08-22T07:07:35.994Z,72.67
2018-08-22T07:08:36.235Z,73.26
2018-08-22T07:09:36.503Z,72.03
2018-08-22T07:10:45.387Z,69.41
2018-08-22T07:11:37.105Z,68.87
2018-08-22T07:12:37.374Z,68.18
2018-08-22T07:13:37.596Z,67.31
2018-08-22T07:14:37.888Z,67.86
2018-08-22T07:15:38.109Z,69.80
2018-08-22T07:16:38.419Z,69.51
2018-08-22T07:17:38.721Z,67.21
2018-08-22T07:18:38.928Z,64.43
2018-08-22T07:19:46.829Z,61.67
2018-08-22T07:20:39.461Z,59.82
2018-08-22T07:21:39.727Z,59.27
2018-08-22T07:22:39.997Z,58.51
2018-08-22T07:23:40.216Z,57.28
2018-08-22T07:24:40.473Z,56.04
2018-08-22T07:25:40.713Z,56.43
2018-08-22T07:26:40.951Z,55.32
2018-08-22T07:27:41.247Z,54.24
2018-08-22T07:28:41.503Z,53.85
2018-08-22T07:29:41.745Z,53.85
2018-08-22T07:30:41.969Z,53.75
2018-08-22T07:31:42.236Z,53.17
2018-08-22T07:32:42.473Z,53.14
2018-08-22T07:33:42.729Z,54.19
2018-08-22T07:34:42.997Z,54.24
2018-08-22T07:35:43.244Z,53.17
2018-08-22T07:36:43.495Z,52.39
2018-08-22T07:37:43.736Z,52.78
2018-08-22T07:38:43.963Z,52.25
2018-08-22T07:39:44.218Z,51.49
2018-08-22T07:40:44.494Z,50.71
2018-08-22T07:41:44.732Z,50.98
2018-08-22T07:42:44.954Z,50.78
2018-08-22T07:43:45.248Z,52.19
2018-08-22T07:44:45.479Z,52.66
2018-08-22T07:45:45.745Z,53.21
2018-08-22T07:46:45.960Z,54.09
2018-08-22T07:47:46.244Z,54.36
2018-08-22T07:48:46.451Z,54.28
2018-08-22T07:49:46.688Z,53.73
2018-08-22T07:50:47.003Z,52.58
2018-08-22T07:51:47.211Z,52.19
2018-08-22T07:52:47.454Z,51.90
2018-08-22T07:53:47.734Z,52.63
2018-08-22T07:54:47.961Z,53.34
2018-08-22T07:55:48.218Z,53.41
2018-08-22T07:56:48.466Z,53.80
2018-08-22T07:57:48.721Z,52.95
2018-08-22T07:58:48.969Z,52.12
2018-08-22T07:59:49.209Z,50.61
2018-08-22T08:00:49.482Z,49.26
2018-08-22T08:01:49.789Z,49.07
2018-08-22T08:02:49.957Z,47.92
2018-08-22T08:03:50.215Z,47.28
2018-08-22T08:04:50.451Z,46.77
2018-08-22T08:05:50.760Z,46.01
2018-08-22T08:06:50.934Z,45.93
2018-08-22T08:07:51.206Z,45.37
2018-08-22T08:08:51.438Z,44.13
2018-08-22T08:09:51.679Z,44.38
2018-08-22T08:10:51.994Z,45.13
2018-08-22T08:11:52.211Z,45.69
2018-08-22T08:12:52.490Z,45.34
2018-08-22T08:13:52.736Z,45.15
2018-08-22T08:14:52.964Z,45.73
2018-08-22T08:15:53.251Z,45.83
2018-08-22T08:16:53.464Z,45.05
2018-08-22T08:17:53.726Z,44.31
2018-08-22T08:18:53.972Z,44.44
2018-08-22T08:19:54.244Z,47.73
2018-08-22T08:20:54.460Z,48.36
2018-08-22T08:21:54.727Z,47.63
2018-08-22T08:22:54.990Z,46.30
2018-08-22T08:23:55.231Z,46.03
2018-08-22T08:24:55.469Z,44.98
2018-08-22T08:25:55.739Z,44.82
2018-08-22T08:26:55.977Z,42.58
2018-08-22T08:27:56.249Z,42.21
2018-08-22T08:28:56.462Z,42.68
2018-08-22T08:29:56.717Z,42.88
2018-08-22T08:30:56.952Z,42.68
2018-08-22T08:31:57.225Z,42.11
2018-08-22T08:32:57.455Z,41.92
2018-08-22T08:33:57.695Z,41.72
2018-08-22T08:34:57.964Z,41.55
2018-08-22T08:35:58.247Z,40.31
2018-08-22T08:36:58.449Z,40.23
2018-08-22T08:37:58.725Z,41.35
2018-08-22T08:38:58.942Z,41.00
2018-08-22T08:39:59.203Z,40.13
2018-08-22T08:40:59.447Z,40.39
2018-08-22T08:41:59.709Z,40.58
2018-08-22T08:42:59.987Z,42.00
2018-08-22T08:44:00.223Z,42.37
2018-08-22T08:45:00.476Z,42.19
2018-08-22T08:46:00.731Z,42.05
2018-08-22T08:47:00.989Z,43.12
2018-08-22T08:48:01.241Z,42.76
2018-08-22T08:49:01.500Z,41.24
2018-08-22T08:50:01.758Z,41.35
2018-08-22T08:51:02.001Z,40.41
2018-08-22T08:52:02.260Z,39.84
2018-08-22T08:53:02.500Z,40.61
2018-08-22T08:54:02.753Z,38.20
2018-08-22T08:55:02.991Z,37.34
2018-08-22T08:56:03.239Z,36.09
2018-08-22T08:57:03.504Z,36.11
2018-08-22T08:58:03.758Z,35.89
2018-08-22T08:59:03.994Z,36.66
2018-08-22T09:00:04.252Z,35.99
2018-08-22T09:01:04.497Z,35.89
2018-08-22T09:02:04.747Z,35.89
2018-08-22T09:03:05.010Z,35.53
2018-08-22T09:04:05.317Z,35.31
2018-08-22T09:05:05.495Z,35.74
2018-08-22T09:06:05.756Z,37.32
2018-08-22T09:07:06.004Z,38.18
2018-08-22T09:08:06.266Z,37.51
2018-08-22T09:09:06.521Z,37.15
2018-08-22T09:10:06.774Z,36.05
2018-08-22T09:11:07.029Z,35.89
2018-08-22T09:12:07.325Z,35.52
2018-08-22T09:13:07.540Z,36.00
2018-08-22T09:14:07.798Z,34.55
2018-08-22T09:15:08.055Z,35.63
2018-08-22T09:16:08.319Z,35.20
2018-08-22T09:17:08.580Z,35.71
2018-08-22T09:18:08.823Z,34.92
2018-08-22T09:19:09.105Z,34.44
2018-08-22T09:20:09.328Z,34.36
2018-08-22T09:21:09.633Z,33.59
2018-08-22T09:22:09.846Z,34.23
2018-08-22T09:23:10.103Z,34.27
2018-08-22T09:24:10.388Z,33.89
2018-08-22T09:25:10.619Z,33.51
2018-08-22T09:26:10.880Z,33.49
2018-08-22T09:27:11.133Z,33.52
2018-08-22T09:28:11.422Z,33.49
2018-08-22T09:29:11.640Z,33.87
2018-08-22T09:30:11.886Z,33.69
2018-08-22T09:31:12.140Z,33.70
2018-08-22T09:32:12.401Z,33.61
2018-08-22T09:33:12.659Z,32.64
2018-08-22T09:34:12.916Z,31.94
2018-08-22T09:35:13.166Z,32.03
2018-08-22T09:36:13.413Z,33.33
2018-08-22T09:37:13.670Z,34.72
2018-08-22T09:38:13.929Z,34.55
2018-08-22T09:39:14.189Z,33.58
2018-08-22T09:40:14.446Z,34.59
2018-08-22T09:41:14.704Z,35.56
2018-08-22T09:42:14.960Z,35.54
2018-08-22T09:43:15.240Z,35.38
2018-08-22T09:44:15.476Z,34.66
2018-08-22T09:45:15.731Z,32.90
2018-08-22T09:46:15.986Z,32.04
2018-08-22T09:47:16.242Z,32.32
2018-08-22T09:48:16.499Z,32.32
2018-08-22T09:49:16.767Z,32.22
2018-08-22T09:50:17.019Z,32.22
2018-08-22T09:51:17.326Z,32.24
2018-08-22T09:52:17.527Z,31.96
2018-08-22T09:53:17.789Z,33.28
2018-08-22T09:54:18.041Z,36.85
2018-08-22T09:55:18.306Z,39.41
2018-08-22T09:56:18.565Z,38.70
2018-08-22T09:57:18.823Z,36.30
2018-08-22T09:58:19.121Z,35.17
2018-08-22T09:59:19.342Z,35.75
2018-08-22T10:00:19.590Z,37.40
2018-08-22T10:01:19.840Z,38.68
2018-08-22T10:02:20.095Z,40.19
2018-08-22T10:03:20.356Z,38.06
2018-08-22T10:04:20.608Z,38.45
2018-08-22T10:05:20.867Z,37.82
2018-08-22T10:06:21.172Z,37.24
2018-08-22T10:07:21.387Z,35.77
2018-08-22T10:08:21.627Z,37.48
2018-08-22T10:09:21.880Z,38.19
2018-08-22T10:10:22.133Z,35.71
2018-08-22T10:11:22.389Z,35.07
2018-08-22T10:12:22.647Z,35.06
2018-08-22T10:13:22.905Z,36.20
2018-08-22T10:14:23.163Z,34.59
2018-08-22T10:15:23.418Z,33.26
2018-08-22T10:16:23.667Z,35.16
2018-08-22T10:17:23.968Z,35.11
2018-08-22T10:18:24.186Z,34.25
2018-08-22T10:19:24.442Z,34.18
2018-08-22T10:20:24.701Z,35.66
2018-08-22T10:21:24.952Z,34.51
2018-08-22T10:22:25.209Z,32.60
2018-08-22T10:23:25.465Z,32.26
2018-08-22T10:24:25.722Z,32.07
2018-08-22T10:25:25.976Z,31.22
2018-08-22T10:26:26.254Z,30.16
2018-08-22T10:27:26.491Z,29.57
2018-08-22T10:28:26.765Z,30.06
2018-08-22T10:29:27.002Z,31.32
2018-08-22T10:30:27.259Z,30.85
2018-08-22T10:31:27.524Z,29.38
2018-08-22T10:32:27.771Z,29.28
2018-08-22T10:33:28.031Z,28.72
2018-08-22T10:34:28.288Z,29.30
2018-08-22T10:35:28.547Z,31.93
2018-08-22T10:36:28.805Z,33.28
2018-08-22T10:37:29.064Z,33.79
2018-08-22T10:38:29.328Z,32.59
2018-08-22T10:39:29.615Z,31.07
2018-08-22T10:40:29.837Z,30.71
2018-08-22T10:41:30.095Z,31.20
2018-08-22T10:42:30.341Z,29.57
2018-08-22T10:43:30.597Z,28.97
2018-08-22T10:44:30.892Z,29.48
2018-08-22T10:45:31.121Z,28.63
2018-08-22T10:46:31.376Z,27.97
2018-08-22T10:47:31.634Z,27.19
2018-08-22T10:48:31.893Z,27.21
2018-08-22T10:49:32.200Z,26.81
2018-08-22T10:50:32.416Z,27.10
2018-08-22T10:51:32.674Z,26.29
2018-08-22T10:52:32.917Z,26.90
2018-08-22T10:53:33.173Z,26.98
2018-08-22T10:54:33.433Z,26.99
2018-08-22T10:55:33.690Z,27.78
2018-08-22T10:56:33.963Z,26.69
2018-08-22T10:57:34.205Z,28.62
2018-08-22T10:58:34.463Z,28.42
2018-08-22T10:59:34.724Z,28.67
2018-08-22T11:00:34.984Z,30.15
2018-08-22T11:01:35.235Z,29.21
2018-08-22T11:02:35.502Z,29.52
2018-08-22T11:03:35.753Z,29.77
2018-08-22T11:04:36.011Z,31.07
2018-08-22T11:05:36.271Z,33.94
2018-08-22T11:06:36.532Z,35.95
2018-08-22T11:07:36.792Z,33.98
2018-08-22T11:08:37.050Z,32.29
2018-08-22T11:09:37.311Z,30.77
2018-08-22T11:10:37.567Z,29.32
2018-08-22T11:11:38.529Z,27.46
2018-08-22T11:12:38.086Z,27.66
2018-08-22T11:13:38.345Z,27.10
2018-08-22T11:14:38.605Z,27.56
2018-08-22T11:15:38.873Z,26.87
2018-08-22T11:16:39.126Z,27.73
2018-08-22T11:17:39.385Z,27.08
2018-08-22T11:18:39.647Z,26.99
2018-08-22T11:19:39.902Z,25.95
2018-08-22T11:20:40.159Z,25.36
2018-08-22T11:21:40.426Z,25.73
2018-08-22T11:22:40.680Z,27.15
2018-08-22T11:23:40.940Z,27.19
2018-08-22T11:24:41.200Z,27.60
2018-08-22T11:25:41.459Z,26.80
2018-08-22T11:26:41.716Z,29.61
2018-08-22T11:27:41.981Z,30.15
2018-08-22T11:28:42.233Z,31.67
2018-08-22T11:29:42.497Z,32.36
2018-08-22T11:30:42.755Z,32.57
2018-08-22T11:31:43.013Z,29.33
2018-08-22T11:32:43.272Z,28.31
2018-08-22T11:33:43.531Z,27.46
2018-08-22T11:34:43.793Z,26.81
2018-08-22T11:35:44.049Z,28.65
2018-08-22T11:36:44.308Z,29.96
2018-08-22T11:37:44.572Z,31.09
2018-08-22T11:38:44.827Z,31.41
2018-08-22T11:39:45.085Z,34.15
2018-08-22T11:40:45.340Z,35.80
2018-08-22T11:41:45.643Z,35.91
2018-08-22T11:42:45.856Z,35.89
2018-08-22T11:43:46.115Z,35.72
2018-08-22T11:44:46.375Z,33.89
2018-08-22T11:45:46.631Z,31.22
2018-08-22T11:46:46.919Z,29.52
2018-08-22T11:47:47.148Z,30.99
2018-08-22T11:48:47.405Z,31.80
2018-08-22T11:49:47.662Z,33.22
2018-08-22T11:50:47.921Z,35.25
2018-08-22T11:51:48.176Z,37.96
2018-08-22T11:52:48.432Z,38.92
2018-08-22T11:53:48.688Z,39.31
2018-08-22T11:54:48.945Z,37.37
2018-08-22T11:55:49.200Z,35.46
2018-08-22T11:56:50.133Z,33.36
2018-08-22T11:57:49.818Z,31.04
2018-08-22T11:58:50.074Z,29.62
2018-08-22T11:59:50.325Z,28.51
2018-08-22T12:00:50.585Z,31.31
2018-08-22T12:01:50.842Z,31.87
2018-08-22T12:02:51.093Z,33.03
2018-08-22T12:03:51.346Z,32.12
2018-08-22T12:04:51.603Z,33.75
2018-08-22T12:05:51.858Z,34.52
2018-08-22T12:06:52.120Z,34.62
2018-08-22T12:07:52.370Z,34.34
2018-08-22T12:08:52.623Z,32.26
2018-08-22T12:09:52.882Z,31.90
2018-08-22T12:10:53.138Z,31.14
2018-08-22T12:11:53.395Z,29.54
2018-08-22T12:12:53.648Z,28.42
2018-08-22T12:13:53.902Z,29.43
2018-08-22T12:14:54.160Z,28.94
2018-08-22T12:15:54.416Z,28.66
2018-08-22T12:16:54.688Z,27.80
2018-08-22T12:17:54.919Z,27.21
2018-08-22T12:18:55.163Z,26.25
2018-08-22T12:19:55.444Z,26.44
2018-08-22T12:20:55.701Z,26.35
2018-08-22T12:21:55.907Z,25.96
2018-08-22T12:22:56.203Z,25.89
2018-08-22T12:23:56.414Z,26.33
2018-08-22T12:24:56.670Z,26.56
2018-08-22T12:25:56.929Z,27.48
2018-08-22T12:26:57.174Z,27.35
2018-08-22T12:27:57.427Z,29.34
2018-08-22T12:28:57.691Z,28.42
2018-08-22T12:29:57.937Z,27.08
2018-08-22T12:30:58.196Z,26.54
2018-08-22T12:31:58.461Z,26.64
2018-08-22T12:32:58.704Z,26.20
2018-08-22T12:33:58.946Z,27.65
2018-08-22T12:34:59.199Z,29.65
2018-08-22T12:35:59.455Z,30.54
2018-08-22T12:36:59.709Z,29.88
2018-08-22T12:37:59.975Z,29.37
2018-08-22T12:39:00.227Z,28.51
2018-08-22T12:40:00.475Z,27.87
2018-08-22T12:41:00.733Z,25.84
2018-08-22T12:42:00.990Z,26.10
2018-08-22T12:43:01.249Z,28.38
2018-08-22T12:44:01.501Z,28.72
2018-08-22T12:45:01.766Z,28.31
2018-08-22T12:46:02.020Z,29.85
2018-08-22T12:47:02.293Z,30.22
2018-08-22T12:48:02.544Z,29.39
2018-08-22T12:49:02.784Z,27.28
2018-08-22T12:50:03.031Z,26.64
2018-08-22T12:51:03.285Z,26.44
2018-08-22T12:52:03.533Z,26.44
2018-08-22T12:53:03.793Z,25.40
2018-08-22T12:54:04.039Z,24.93
2018-08-22T12:55:04.301Z,24.15
2018-08-22T12:56:04.544Z,23.46